Time;durP1;ratioP1;P1;durP2;ratioP2;P2;SDS_P1;SDS_P2;PMS_P1;PMS_P2;Temp;Humidity;BMP_temperature;BMP_pressure;BME280_temperature;BME280_humidity;BME280_pressure;Samples;Min_cycle;Max_cycle;Signal;HPM_P1;HPM_P2
2024/03/02 00:01:53;;;;;;;7.07;2.42;;;;;;;8.01;100.00;99653.31;5062080;28;20036;-79
2024/03/02 00:04:19;;;;;;;8.68;2.50;;;;;;;7.82;100.00;99658.66;5064967;28;20021;-78
2024/03/02 00:06:44;;;;;;;8.80;2.50;;;;;;;7.77;100.00;99728.81;5061292;28;20333;-77
2024/03/02 00:09:13;;;;;;;5.32;1.90;;;;;;;7.30;100.00;99745.53;5064085;28;20186;-78
2024/03/02 00:11:39;;;;;;;3.30;1.67;;;;;;;6.51;100.00;99766.38;5061952;28;20036;-79
2024/03/02 00:14:04;;;;;;;3.03;1.60;;;;;;;6.15;100.00;99767.97;5063259;28;20376;-79
2024/03/02 00:16:33;;;;;;;2.45;1.50;;;;;;;5.96;100.00;99756.47;5062899;28;20111;-79
2024/03/02 00:19:03;;;;;;;2.13;1.70;;;;;;;5.86;100.00;99773.88;5062435;28;20029;-78
2024/03/02 00:21:31;;;;;;;3.47;1.80;;;;;;;5.79;100.00;99781.72;5061977;28;20394;-79
2024/03/02 00:23:57;;;;;;;4.07;1.60;;;;;;;5.69;100.00;99786.00;5062079;28;20476;-78
2024/03/02 00:26:22;;;;;;;3.05;1.70;;;;;;;5.69;100.00;99784.25;5062705;28;20040;-78
2024/03/02 00:28:50;;;;;;;2.67;1.80;;;;;;;5.70;100.00;99780.75;5061378;28;20025;-79
2024/03/02 00:31:18;;;;;;;2.67;1.77;;;;;;;5.62;100.00;99771.09;5057138;28;20057;-79
2024/03/02 00:33:45;;;;;;;1.70;1.60;;;;;;;5.59;100.00;99783.31;5064180;28;20032;-79
2024/03/02 00:36:14;;;;;;;2.70;1.80;;;;;;;5.57;100.00;99786.78;5060114;28;20039;-79
2024/03/02 00:38:47;;;;;;;3.97;1.85;;;;;;;5.55;100.00;99802.50;5062442;28;20028;-79
2024/03/02 00:41:22;;;;;;;2.45;1.70;;;;;;;5.56;100.00;99792.88;5060838;28;20029;-79
2024/03/02 00:43:57;;;;;;;3.28;1.80;;;;;;;5.52;100.00;99792.00;5057294;28;20029;-78
2024/03/02 00:46:23;;;;;;;2.70;1.60;;;;;;;5.53;100.00;99804.25;5058439;28;20541;-79
2024/03/02 00:49:01;;;;;;;2.30;1.80;;;;;;;5.56;100.00;99792.88;5064502;28;20036;-80
2024/03/02 00:51:29;;;;;;;1.80;1.70;;;;;;;5.54;100.00;99792.00;5059785;28;20032;-80
2024/03/02 00:53:56;;;;;;;2.58;1.75;;;;;;;5.50;100.00;99783.22;5063260;28;20021;-80
2024/03/02 00:56:22;;;;;;;2.28;1.77;;;;;;;5.53;100.00;99790.25;5061522;28;20037;-79
2024/03/02 00:58:48;;;;;;;2.47;1.80;;;;;;;5.51;100.00;99784.13;5064188;28;20024;-80
2024/03/02 01:01:13;;;;;;;2.08;1.70;;;;;;;5.47;100.00;99784.97;5060625;28;20373;-79
2024/03/02 01:03:39;;;;;;;3.08;1.80;;;;;;;5.44;100.00;99804.16;5063558;28;20025;-79
2024/03/02 01:06:05;;;;;;;4.40;1.90;;;;;;;5.47;100.00;99801.56;5062045;28;20029;-79
2024/03/02 01:08:30;;;;;;;2.20;1.80;;;;;;;5.44;100.00;99809.41;5042544;28;20056;-80
2024/03/02 01:10:56;;;;;;;3.58;1.75;;;;;;;5.45;100.00;99800.69;5063000;28;20032;-78
2024/03/02 01:13:24;;;;;;;2.85;1.83;;;;;;;5.43;100.00;99801.53;5059541;28;20033;-79
2024/03/02 01:15:50;;;;;;;3.10;1.83;;;;;;;5.42;100.00;99800.66;5062694;28;20035;-80
2024/03/02 01:18:15;;;;;;;2.75;1.80;;;;;;;5.44;100.00;99809.41;5060459;28;20025;-79
2024/03/02 01:20:41;;;;;;;3.45;1.98;;;;;;;5.43;100.00;99809.38;5063496;28;20036;-79
2024/03/02 01:23:06;;;;;;;4.82;1.90;;;;;;;5.45;100.00;99805.91;5060380;28;20690;-80
2024/03/02 01:25:32;;;;;;;2.47;2.00;;;;;;;5.47;100.00;99804.19;5062200;28;20021;-79
2024/03/02 01:27:57;;;;;;;4.43;2.00;;;;;;;5.47;100.00;99803.31;5062578;28;20029;-80
2024/03/02 01:30:23;;;;;;;2.50;1.85;;;;;;;5.51;100.00;99811.22;5062561;28;20032;-80
2024/03/02 01:32:48;;;;;;;3.60;1.90;;;;;;;5.52;100.00;99806.84;5067554;28;20364;-80
2024/03/02 01:35:14;;;;;;;3.00;1.90;;;;;;;5.53;100.00;99805.97;5062823;28;20032;-79
2024/03/02 01:37:40;;;;;;;4.28;1.95;;;;;;;5.56;100.00;99809.53;5065844;28;20036;-79
2024/03/02 01:40:08;;;;;;;3.70;1.80;;;;;;;5.58;100.00;99813.00;5065140;28;20115;-80
2024/03/02 01:42:38;;;;;;;4.25;1.80;;;;;;;5.64;100.00;99816.56;5066268;28;20025;-79
2024/03/02 01:45:08;;;;;;;3.05;1.80;;;;;;;5.67;100.00;99812.22;5065763;28;20016;-80
2024/03/02 01:47:35;;;;;;;3.28;1.80;;;;;;;5.73;100.00;99811.38;5065835;28;20036;-79
2024/03/02 01:50:00;;;;;;;2.72;1.73;;;;;;;5.72;100.00;99799.13;5065911;28;20068;-76
2024/03/02 01:52:27;;;;;;;3.22;1.70;;;;;;;5.74;100.00;99807.91;5064821;28;20104;-77
2024/03/02 01:54:52;;;;;;;3.20;1.70;;;;;;;5.72;100.00;99812.25;5066858;28;20033;-79
2024/03/02 01:57:18;;;;;;;2.78;1.80;;;;;;;5.71;100.00;99819.25;5063679;28;20025;-79
2024/03/02 01:59:44;;;;;;;2.90;1.70;;;;;;;5.70;100.00;99816.63;5067189;28;20078;-78
2024/03/02 02:02:09;;;;;;;3.30;1.80;;;;;;;5.69;100.00;99814.84;5064300;28;20373;-79
2024/03/02 02:04:35;;;;;;;3.08;1.80;;;;;;;5.66;100.00;99812.19;5065865;28;20049;-79
2024/03/02 02:07:00;;;;;;;2.13;1.70;;;;;;;5.62;100.00;99810.41;5065766;28;20024;-79
2024/03/02 02:09:26;;;;;;;3.72;1.70;;;;;;;5.56;100.00;99803.38;5064547;28;20553;-79
2024/03/02 02:11:52;;;;;;;2.97;1.90;;;;;;;5.52;100.00;99806.84;5066577;28;20025;-79
2024/03/02 02:14:17;;;;;;;3.33;1.70;;;;;;;5.48;100.00;99813.81;5063675;28;20041;-79
2024/03/02 02:16:43;;;;;;;3.08;1.85;;;;;;;5.47;100.00;99814.66;5066486;28;20108;-79
2024/03/02 02:19:09;;;;;;;3.83;1.90;;;;;;;5.49;100.00;99805.09;5064197;28;20039;-77
2024/03/02 02:21:34;;;;;;;1.90;1.70;;;;;;;5.47;100.00;99804.19;5065747;28;20021;-79
2024/03/02 02:24:01;;;;;;;4.32;1.80;;;;;;;5.46;100.00;99797.19;5065229;28;20174;-78
2024/03/02 02:26:26;;;;;;;3.67;1.70;;;;;;;5.46;100.00;99807.69;5064203;28;20108;-78
2024/03/02 02:28:52;;;;;;;3.45;1.75;;;;;;;5.41;100.00;99804.13;5066242;28;20062;-79
2024/03/02 02:31:17;;;;;;;3.45;2.05;;;;;;;5.41;100.00;99799.75;5063433;28;20025;-79
2024/03/02 02:33:43;;;;;;;3.35;1.85;;;;;;;5.35;100.00;99804.94;5066205;28;20425;-79
2024/03/02 02:36:10;;;;;;;4.40;1.80;;;;;;;5.40;100.00;99798.03;5063799;28;20439;-79
2024/03/02 02:38:38;;;;;;;3.33;1.80;;;;;;;5.40;100.00;99786.63;5064979;28;20484;-79
2024/03/02 02:41:04;;;;;;;3.83;1.80;;;;;;;5.43;100.00;99794.53;5063082;28;20360;-78
2024/03/02 02:43:29;;;;;;;5.40;1.90;;;;;;;5.38;100.00;99798.88;5064303;28;20036;-79
2024/03/02 02:45:55;;;;;;;3.35;1.70;;;;;;;5.35;100.00;99789.22;5065484;28;20059;-79
2024/03/02 02:48:20;;;;;;;3.67;1.90;;;;;;;5.33;100.00;99776.97;5061715;28;20025;-78
2024/03/02 02:50:45;;;;;;;2.45;1.80;;;;;;;5.35;100.00;99810.19;5065112;28;20027;-78
2024/03/02 02:53:11;;;;;;;3.75;1.90;;;;;;;5.38;100.00;99811.97;5061878;28;20036;-78
2024/03/02 02:55:40;;;;;;;2.97;1.77;;;;;;;5.38;100.00;99798.88;5065129;28;20484;-80
2024/03/02 02:58:12;;;;;;;3.28;2.00;;;;;;;5.34;100.00;99808.44;5063917;28;20017;-80
2024/03/02 03:00:37;;;;;;;4.38;1.83;;;;;;;5.44;100.00;99798.91;5063647;28;20387;-79
2024/03/02 03:03:03;;;;;;;4.95;1.85;;;;;;;5.50;100.00;99793.72;5064427;28;20024;-79
2024/03/02 03:05:28;;;;;;;3.15;1.85;;;;;;;5.55;100.00;99792.03;5063538;28;20035;-80
2024/03/02 03:07:54;;;;;;;2.65;1.77;;;;;;;5.55;100.00;99796.41;5065159;28;20492;-78
2024/03/02 03:10:21;;;;;;;2.47;1.80;;;;;;;5.53;100.00;99799.00;5062592;28;20048;-80
2024/03/02 03:12:47;;;;;;;4.13;1.90;;;;;;;5.58;100.00;99806.91;5058345;28;20538;-80
2024/03/02 03:15:13;;;;;;;4.03;1.80;;;;;;;5.62;100.00;99807.78;5065339;28;20108;-79
2024/03/02 03:17:38;;;;;;;4.07;1.70;;;;;;;5.63;100.00;99805.19;5063371;28;20034;-79
2024/03/02 03:20:05;;;;;;;2.45;1.80;;;;;;;5.65;100.00;99807.81;5064049;28;20483;-79
2024/03/02 03:22:31;;;;;;;3.45;1.75;;;;;;;5.63;100.00;99799.94;5064121;28;20039;-80
2024/03/02 03:24:57;;;;;;;3.35;1.70;;;;;;;5.71;100.00;99805.25;5063143;28;20109;-79
2024/03/02 03:27:22;;;;;;;3.00;1.70;;;;;;;5.76;100.00;99798.28;5065181;28;20119;-78
2024/03/02 03:29:48;;;;;;;2.88;1.75;;;;;;;5.76;100.00;99790.41;5062203;28;20071;-78
2024/03/02 03:32:14;;;;;;;3.85;1.83;;;;;;;5.77;100.00;99800.06;5065315;28;20458;-79
2024/03/02 03:34:40;;;;;;;2.70;1.60;;;;;;;5.83;100.00;99801.84;5062962;28;20082;-79
2024/03/02 03:37:05;;;;;;;3.00;1.60;;;;;;;5.84;100.00;99798.34;5063769;28;20120;-79
2024/03/02 03:39:30;;;;;;;3.70;1.67;;;;;;;5.86;100.00;99809.75;5064054;28;20115;-78
2024/03/02 03:41:56;;;;;;;3.50;1.60;;;;;;;5.90;100.00;99816.75;5062423;28;20032;-77
2024/03/02 03:44:21;;;;;;;2.50;1.70;;;;;;;5.92;100.00;99812.41;5065432;28;20541;-80
2024/03/02 03:46:47;;;;;;;3.63;1.65;;;;;;;5.94;100.00;99816.78;5061770;28;20024;-80
2024/03/02 03:49:12;;;;;;;2.78;1.63;;;;;;;5.98;100.00;99811.59;5064496;28;20111;-80
2024/03/02 03:51:37;;;;;;;3.67;1.60;;;;;;;5.99;100.00;99818.59;5062874;28;20048;-79
2024/03/02 03:54:03;;;;;;;2.10;1.45;;;;;;;5.99;100.00;99813.34;5062453;28;20090;-80
2024/03/02 03:56:28;;;;;;;4.45;1.52;;;;;;;6.01;100.00;99807.22;5064111;28;20024;-79
2024/03/02 03:58:53;;;;;;;4.80;1.60;;;;;;;6.06;100.00;99817.78;5061909;28;20064;-79
2024/03/02 04:01:19;;;;;;;4.00;1.70;;;;;;;6.09;100.00;99812.53;5064914;28;20028;-79
2024/03/02 04:03:44;;;;;;;2.47;1.58;;;;;;;6.05;100.00;99808.16;5061534;28;20029;-79
2024/03/02 04:06:10;;;;;;;2.65;1.48;;;;;;;6.04;100.00;99814.25;5064135;28;20039;-79
2024/03/02 04:08:35;;;;;;;4.35;1.70;;;;;;;5.98;100.00;99811.59;5062593;28;20045;-80
2024/03/02 04:11:02;;;;;;;2.53;1.60;;;;;;;5.98;100.00;99806.34;5062584;28;20109;-79
2024/03/02 04:13:28;;;;;;;2.67;1.70;;;;;;;5.97;100.00;99818.59;5062453;28;20488;-79
2024/03/02 04:15:53;;;;;;;3.80;1.80;;;;;;;5.97;100.00;99809.78;5060318;28;20064;-79
2024/03/02 04:18:19;;;;;;;5.13;1.60;;;;;;;5.92;100.00;99812.41;5064861;28;20405;-80
2024/03/02 04:20:44;;;;;;;5.95;1.90;;;;;;;5.82;100.00;99816.69;5061619;28;20029;-80
2024/03/02 04:23:09;;;;;;;4.93;1.75;;;;;;;5.76;100.00;99814.03;5062360;28;20398;-80
2024/03/02 04:25:36;;;;;;;3.30;1.85;;;;;;;5.69;100.00;99801.72;5065239;28;20400;-80
2024/03/02 04:28:01;;;;;;;4.93;1.63;;;;;;;5.66;100.00;99806.97;5063028;28;20518;-80
2024/03/02 04:30:26;;;;;;;4.68;1.75;;;;;;;5.66;100.00;99825.31;5061758;28;20060;-80
2024/03/02 04:32:52;;;;;;;4.50;1.80;;;;;;;5.72;100.00;99830.59;5046374;28;20025;-81
2024/03/02 04:35:17;;;;;;;4.00;1.80;;;;;;;5.78;100.00;99824.53;5059532;28;20361;-82
2024/03/02 04:37:42;;;;;;;6.90;1.90;;;;;;;5.80;100.00;99822.81;5064058;28;20472;-80
2024/03/02 04:40:09;;;;;;;3.15;1.70;;;;;;;5.81;100.00;99822.81;5062301;28;20033;-80
2024/03/02 04:42:35;;;;;;;3.90;1.73;;;;;;;5.85;100.00;99824.56;5062613;28;20033;-80
2024/03/02 04:45:01;;;;;;;4.38;1.60;;;;;;;5.86;100.00;99828.09;5063113;28;20021;-80
2024/03/02 04:47:26;;;;;;;3.10;1.60;;;;;;;5.87;100.00;99828.09;5060297;28;20383;-80
2024/03/02 04:49:52;;;;;;;1.98;1.70;;;;;;;5.90;100.00;99827.25;5064100;28;20099;-79
2024/03/02 04:52:17;;;;;;;5.35;1.70;;;;;;;5.94;100.00;99822.03;5060906;28;20029;-79
2024/03/02 04:57:27;;;;;;;3.00;1.70;;;;;;;5.98;100.00;99836.06;5059284;28;20110;-78
2024/03/02 04:59:52;;;;;;;3.95;1.65;;;;;;;5.98;100.00;99828.19;5063902;28;20452;-79
2024/03/02 05:02:18;;;;;;;5.05;1.70;;;;;;;5.97;100.00;99841.28;5060605;28;20028;-78
2024/03/02 05:04:43;;;;;;;3.05;1.60;;;;;;;5.96;100.00;99839.53;5064486;28;20058;-79
2024/03/02 05:07:08;;;;;;;5.30;1.60;;;;;;;5.93;100.00;99833.38;5064367;28;20105;-79
2024/03/02 05:09:34;;;;;;;2.20;1.50;;;;;;;5.90;100.00;99832.50;5066759;28;20111;-79
2024/03/02 05:12:17;;;;;;;3.42;1.60;;;;;;;5.81;100.00;99835.03;5067026;28;20490;-79
2024/03/02 05:14:42;;;;;;;3.22;1.70;;;;;;;5.72;100.00;99836.75;5067288;28;20033;-79
2024/03/02 05:17:08;;;;;;;4.45;1.60;;;;;;;5.66;100.00;99827.94;5066017;28;20032;-79
2024/03/02 05:19:33;;;;;;;2.28;1.63;;;;;;;5.70;100.00;99841.06;5066151;28;20024;-79
2024/03/02 05:21:59;;;;;;;2.85;1.60;;;;;;;5.69;100.00;99841.06;5066873;28;20033;-78
2024/03/02 05:24:27;;;;;;;3.78;1.67;;;;;;;5.78;100.00;99856.88;5064680;28;20047;-80
2024/03/02 05:26:52;;;;;;;3.78;1.60;;;;;;;5.74;100.00;99845.50;5067860;28;20492;-79
2024/03/02 05:29:17;;;;;;;6.53;1.80;;;;;;;5.75;100.00;99857.75;5064294;28;20065;-78
2024/03/02 05:31:43;;;;;;;6.00;1.60;;;;;;;5.78;100.00;99856.00;5065830;28;20020;-79
2024/03/02 05:34:08;;;;;;;2.65;1.60;;;;;;;5.83;100.00;99856.94;5047489;28;20051;-78
2024/03/02 05:36:33;;;;;;;6.75;1.83;;;;;;;5.85;100.00;99865.69;5065690;28;20029;-80
2024/03/02 05:38:59;;;;;;;4.60;1.80;;;;;;;5.85;100.00;99863.06;5066433;28;20109;-80
2024/03/02 05:41:24;;;;;;;3.88;1.60;;;;;;;5.90;100.00;99864.84;5064635;28;20029;-80
2024/03/02 05:43:49;;;;;;;4.78;1.80;;;;;;;5.94;100.00;99861.38;5067462;28;20097;-80
2024/03/02 05:46:15;;;;;;;4.70;1.50;;;;;;;5.93;100.00;99861.38;5064283;28;20017;-78
2024/03/02 05:48:40;;;;;;;5.82;1.80;;;;;;;5.90;100.00;99867.47;5066385;28;20083;-78
2024/03/02 05:51:06;;;;;;;2.03;1.70;;;;;;;5.91;100.00;99874.50;5065600;28;20021;-80
2024/03/02 05:53:31;;;;;;;7.38;1.90;;;;;;;5.98;100.00;99877.19;5065173;28;20161;-80
2024/03/02 05:55:56;;;;;;;4.18;1.60;;;;;;;5.93;100.00;99872.75;5066598;28;20039;-80
2024/03/02 05:58:33;;;;;;;3.28;1.60;;;;;;;5.79;100.00;99863.88;5063680;28;20021;-80
2024/03/02 06:00:59;;;;;;;1.92;1.70;;;;;;;5.68;100.00;99866.44;5062068;28;20025;-78
2024/03/02 06:03:24;;;;;;;4.30;1.70;;;;;;;5.59;100.00;99872.47;5067273;28;20529;-78
2024/03/02 06:05:49;;;;;;;5.97;1.80;;;;;;;5.51;100.00;99868.88;5063678;28;20029;-80
2024/03/02 06:08:15;;;;;;;3.65;1.67;;;;;;;5.45;100.00;99874.06;5066704;28;20396;-80
2024/03/02 06:10:40;;;;;;;6.70;1.90;;;;;;;5.45;100.00;99879.31;5063162;28;20064;-80
2024/03/02 06:13:05;;;;;;;5.78;1.70;;;;;;;5.46;100.00;99881.09;5047319;28;20029;-80
2024/03/02 06:15:31;;;;;;;2.88;1.60;;;;;;;5.48;100.00;99875.84;5065370;28;20060;-78
2024/03/02 06:17:56;;;;;;;2.80;1.70;;;;;;;5.40;100.00;99881.91;5063697;28;20040;-80
2024/03/02 06:20:21;;;;;;;4.60;1.70;;;;;;;5.35;100.00;99887.94;5066941;28;20032;-80
2024/03/02 06:22:47;;;;;;;5.25;1.85;;;;;;;5.28;100.00;99891.38;5063640;28;20168;-79
2024/03/02 06:25:13;;;;;;;3.97;1.80;;;;;;;5.28;100.00;99887.00;5065974;28;20047;-79
2024/03/02 06:27:38;;;;;;;2.85;1.83;;;;;;;5.30;100.00;99879.16;5064387;28;20435;-79
2024/03/02 06:30:04;;;;;;;3.25;1.75;;;;;;;5.31;100.00;99887.03;5065023;28;20037;-78
2024/03/02 06:32:30;;;;;;;3.80;1.90;;;;;;;5.29;100.00;99885.28;5064129;28;20063;-79
2024/03/02 06:34:55;;;;;;;5.00;1.80;;;;;;;5.27;100.00;99882.66;5063311;28;20069;-80
2024/03/02 06:37:20;;;;;;;5.43;2.03;;;;;;;5.24;100.00;99890.44;5066698;28;20024;-79
2024/03/02 06:39:46;;;;;;;5.82;1.90;;;;;;;5.27;100.00;99898.38;5063244;28;20029;-80
2024/03/02 06:42:11;;;;;;;4.38;1.90;;;;;;;5.24;100.00;99891.34;5065645;28;20033;-78
2024/03/02 06:44:36;;;;;;;4.82;1.90;;;;;;;5.28;100.00;99891.38;5064362;28;20029;-80
2024/03/02 06:47:02;;;;;;;4.72;1.80;;;;;;;5.28;100.00;99897.47;5063864;28;20048;-79
2024/03/02 06:49:27;;;;;;;4.57;2.00;;;;;;;5.33;100.00;99908.00;5065957;28;20020;-79
2024/03/02 06:51:52;;;;;;;5.65;1.90;;;;;;;5.36;100.00;99910.69;5062646;28;20021;-78
2024/03/02 06:54:18;;;;;;;4.55;1.95;;;;;;;5.40;100.00;99912.44;5058408;28;20029;-79
2024/03/02 06:56:43;;;;;;;5.72;2.00;;;;;;;5.45;100.00;99917.78;5065832;28;20526;-79
2024/03/02 06:59:08;;;;;;;6.40;1.90;;;;;;;5.46;100.00;99915.16;5064120;28;20372;-79
2024/03/02 07:01:34;;;;;;;4.78;1.73;;;;;;;5.51;100.00;99923.06;5063961;28;20498;-80
2024/03/02 07:04:00;;;;;;;6.45;1.90;;;;;;;5.53;100.00;99927.47;5065136;28;20043;-76
2024/03/02 07:06:25;;;;;;;8.45;2.00;;;;;;;5.52;100.00;99923.09;5062719;28;20037;-77
2024/03/02 07:08:50;;;;;;;4.97;1.80;;;;;;;5.55;100.00;99935.34;5065719;28;20049;-78
2024/03/02 07:11:16;;;;;;;4.75;1.73;;;;;;;5.57;100.00;99929.25;5062767;28;20037;-80
2024/03/02 07:13:41;;;;;;;6.50;1.90;;;;;;;5.64;100.00;99927.56;5064930;28;20033;-81
2024/03/02 07:16:27;;;;;;;5.82;2.00;;;;;;;5.66;100.00;99920.59;5064074;28;20111;-80
2024/03/02 07:18:55;;;;;;;5.80;1.90;;;;;;;5.72;100.00;99933.78;5059017;28;20037;-80
2024/03/02 07:21:22;;;;;;;6.18;2.00;;;;;;;5.79;100.00;99932.06;5058812;28;20045;-76
2024/03/02 07:23:47;;;;;;;6.50;1.98;;;;;;;5.86;100.00;99933.88;5065361;28;20043;-79
2024/03/02 07:26:13;;;;;;;8.23;1.95;;;;;;;5.96;100.00;99940.09;5057603;28;20032;-78
2024/03/02 07:28:38;;;;;;;6.57;1.88;;;;;;;5.99;100.00;99939.28;5063180;28;20021;-80
2024/03/02 07:31:04;;;;;;;7.20;1.90;;;;;;;5.97;100.00;99941.91;5063169;28;20029;-81
2024/03/02 07:33:30;;;;;;;6.15;1.90;;;;;;;5.97;100.00;99948.84;5062774;28;20030;-81
2024/03/02 07:35:56;;;;;;;9.30;2.15;;;;;;;5.98;100.00;99942.78;5065334;28;20038;-80
2024/03/02 07:38:22;;;;;;;5.43;1.98;;;;;;;5.97;100.00;99940.97;5060917;28;20052;-80
2024/03/02 07:40:51;;;;;;;11.98;2.10;;;;;;;6.00;100.00;99954.16;5065164;28;20039;-80
2024/03/02 07:43:17;;;;;;;5.90;1.90;;;;;;;5.99;100.00;99940.16;5062153;28;20036;-80
2024/03/02 07:45:43;;;;;;;8.63;2.03;;;;;;;5.94;100.00;99937.47;5064064;28;20161;-80
2024/03/02 07:48:08;;;;;;;7.43;2.00;;;;;;;5.92;100.00;99946.19;5063314;28;20056;-80
2024/03/02 07:50:35;;;;;;;8.70;1.90;;;;;;;5.85;100.00;99937.38;5062813;28;20021;-80
2024/03/02 07:53:01;;;;;;;8.20;1.90;;;;;;;5.83;100.00;99941.72;5046357;28;20493;-81
2024/03/02 07:55:26;;;;;;;7.15;1.90;;;;;;;5.90;100.00;99946.19;5061734;28;20082;-80
2024/03/02 07:57:51;;;;;;;9.32;2.00;;;;;;;5.97;100.00;99946.22;5064902;28;20040;-80
2024/03/02 08:00:29;;;;;;;7.75;2.17;;;;;;;6.00;100.00;99941.94;5089804;27;20405;-79
2024/03/02 08:02:55;;;;;;;8.25;2.10;;;;;;;5.98;100.00;99953.28;5090075;28;20111;-80
2024/03/02 08:05:21;;;;;;;9.40;2.13;;;;;;;6.06;100.00;99949.84;5089114;28;20035;-80
2024/03/02 08:07:47;;;;;;;10.35;2.28;;;;;;;6.17;100.00;99949.06;5089830;28;20024;-80
2024/03/02 08:10:13;;;;;;;10.77;2.20;;;;;;;6.35;100.00;99943.94;5089996;28;20134;-79
2024/03/02 08:12:38;;;;;;;8.40;1.95;;;;;;;6.60;100.00;99952.88;5090072;28;20024;-79
2024/03/02 08:15:04;;;;;;;6.57;2.00;;;;;;;6.90;100.00;99959.19;5089922;28;20063;-79
2024/03/02 08:17:30;;;;;;;9.18;2.20;;;;;;;7.09;100.00;99954.88;5090067;28;20078;-80
2024/03/02 08:19:56;;;;;;;11.57;2.72;;;;;;;7.30;100.00;99950.59;5090039;28;20020;-80
2024/03/02 08:22:21;;;;;;;10.00;2.15;;;;;;;7.46;100.00;99943.63;5089863;28;20112;-78
2024/03/02 08:24:47;;;;;;;8.25;2.00;;;;;;;7.59;100.00;99953.28;5088790;28;20425;-81
2024/03/02 08:27:12;;;;;;;10.88;2.10;;;;;;;7.77;100.00;99944.53;5089784;28;20119;-80
2024/03/02 08:29:38;;;;;;;10.88;2.17;;;;;;;7.90;100.00;99945.44;5088551;28;20032;-77
2024/03/02 08:32:04;;;;;;;8.02;2.20;;;;;;;7.99;100.00;99950.75;5089845;28;20028;-76
2024/03/02 08:34:30;;;;;;;7.65;2.00;;;;;;;8.17;100.00;99949.84;5089477;28;20070;-79
2024/03/02 08:36:55;;;;;;;6.15;2.00;;;;;;;8.31;100.00;99941.94;5089619;28;20048;-80
2024/03/02 08:39:20;;;;;;;5.45;1.90;;;;;;;8.48;100.00;99949.00;5089626;28;20024;-81
2024/03/02 08:41:47;;;;;;;7.38;2.00;;;;;;;8.53;100.00;99947.22;5089715;28;20540;-77
2024/03/02 08:44:13;;;;;;;7.32;2.05;;;;;;;8.62;100.00;99943.69;5089388;28;20029;-77
2024/03/02 08:46:39;;;;;;;7.82;2.10;;;;;;;8.72;100.00;99933.13;5083978;28;20395;-78
2024/03/02 08:49:05;;;;;;;8.55;2.20;;;;;;;8.85;100.00;99954.16;5076937;28;20510;-80
2024/03/02 08:51:30;;;;;;;9.82;2.10;;;;;;;8.92;100.00;99961.19;5080857;28;20028;-79
2024/03/02 08:53:57;;;;;;;7.13;2.00;;;;;;;8.95;100.00;99948.00;5077615;28;20055;-79
2024/03/02 08:56:23;;;;;;;8.68;2.05;;;;;;;9.10;100.00;99949.72;5080835;28;20082;-78
2024/03/02 08:58:52;;;;;;;9.90;2.03;;;;;;;9.32;100.00;99957.50;5077583;28;20048;-80
2024/03/02 09:01:19;;;;;;;7.10;2.00;;;;;;;9.40;100.00;99959.22;5079933;28;20171;-80
2024/03/02 09:03:44;;;;;;;9.45;1.90;;;;;;;9.29;100.00;99950.50;5077356;28;20028;-77
2024/03/02 09:06:11;;;;;;;7.30;2.00;;;;;;;9.30;100.00;99946.97;5078498;28;20490;-81
2024/03/02 09:08:36;;;;;;;7.88;2.05;;;;;;;9.36;100.00;99952.25;5080106;28;20043;-81
2024/03/02 09:11:03;;;;;;;7.22;1.90;;;;;;;9.43;100.00;99953.94;5067935;28;20488;-81
2024/03/02 09:13:29;;;;;;;10.77;2.05;;;;;;;9.55;100.00;99954.75;5067092;28;20040;-77
2024/03/02 09:15:54;;;;;;;9.13;1.92;;;;;;;9.66;100.00;99957.34;5064055;28;20035;-79
2024/03/02 09:18:20;;;;;;;11.68;2.20;;;;;;;9.75;100.00;99944.97;5066236;28;20111;-76
2024/03/02 09:20:45;;;;;;;8.68;2.00;;;;;;;9.90;100.00;99949.28;5065012;28;20391;-79
2024/03/02 09:23:11;;;;;;;5.43;2.00;;;;;;;10.18;100.00;99961.38;5065053;28;20029;-78
2024/03/02 09:25:37;;;;;;;9.55;1.90;;;;;;;10.31;100.00;99952.47;5065931;28;20116;-78
2024/03/02 09:28:03;;;;;;;7.07;1.90;;;;;;;10.46;100.00;99972.63;5063943;28;20429;-77
2024/03/02 09:30:28;;;;;;;7.22;1.90;;;;;;;10.68;100.00;99957.44;5066838;28;20526;-80
2024/03/02 09:32:53;;;;;;;11.75;2.28;;;;;;;10.74;100.00;99948.56;5063401;28;20072;-79
2024/03/02 09:35:19;;;;;;;6.88;2.00;;;;;;;10.65;100.00;99949.53;5066032;28;20472;-77
2024/03/02 09:37:45;;;;;;;9.05;2.03;;;;;;;10.62;100.00;99949.56;5064451;28;20067;-81
2024/03/02 09:40:11;;;;;;;6.30;2.00;;;;;;;10.60;100.00;99964.56;5064486;28;20052;-80
2024/03/02 09:42:37;;;;;;;9.52;2.10;;;;;;;10.93;100.00;99963.31;5065901;28;20356;-81
2024/03/02 09:45:03;;;;;;;10.68;2.10;;;;;;;11.06;100.00;99966.72;5063346;28;20037;-78
2024/03/02 09:47:28;;;;;;;8.25;2.10;;;;;;;11.09;100.00;99955.22;5066404;28;20085;-82
2024/03/02 09:49:55;;;;;;;10.50;2.10;;;;;;;11.14;100.00;99972.81;5061981;28;20155;-81
2024/03/02 09:52:22;;;;;;;10.10;2.03;;;;;;;11.35;100.00;99952.25;5065756;28;20107;-82
2024/03/02 09:54:48;;;;;;;9.68;2.00;;;;;;;11.50;100.00;99953.81;5063962;28;20028;-80
2024/03/02 09:57:13;;;;;;;7.43;1.80;;;;;;;11.86;100.00;99959.50;5064828;28;20029;-78
2024/03/02 09:59:38;;;;;;;8.27;2.00;;;;;;;11.97;100.00;99951.41;5064797;28;20071;-79
2024/03/02 10:02:06;;;;;;;7.95;2.00;;;;;;;12.00;100.00;99946.09;5063331;28;20036;-79
2024/03/02 10:04:32;;;;;;;7.22;2.00;;;;;;;12.18;100.00;99950.22;5066137;28;20032;-80
2024/03/02 10:07:18;;;;;;;6.57;1.88;;;;;;;12.43;100.00;99955.97;5062710;28;20040;-80
2024/03/02 10:09:46;;;;;;;10.18;2.60;;;;;;;12.30;100.00;99943.81;5064464;28;20143;-80
2024/03/02 10:12:13;;;;;;;8.45;2.10;;;;;;;12.32;100.00;99936.72;5064328;28;20032;-80
2024/03/02 10:14:39;;;;;;;9.18;1.90;;;;;;;12.77;100.00;99934.16;5062604;28;20024;-79
2024/03/02 10:17:13;;;;;;;8.18;2.00;;;;;;;13.09;100.00;99927.31;5065364;28;20024;-79
2024/03/02 10:19:39;;;;;;;8.35;2.00;;;;;;;13.21;100.00;99924.41;5063525;28;20037;-79
2024/03/02 10:22:06;;;;;;;7.43;2.03;;;;;;;13.18;100.00;99934.25;5063983;28;20494;-80
2024/03/02 10:24:40;;;;;;;6.57;1.80;;;;;;;13.48;100.00;99932.72;5062333;28;20118;-81
2024/03/02 10:27:31;;;;;;;5.75;1.92;;;;;;;13.40;100.00;99924.94;5064550;28;20045;-80
2024/03/02 10:29:56;;;;;;;9.18;1.90;;;;;;;13.05;100.00;99939.78;5062206;28;20043;-79
2024/03/02 10:32:22;;;;;;;8.75;2.00;;;;;;;13.39;100.00;99920.50;5065023;28;20028;-79
2024/03/02 10:34:48;;;;;;;9.77;2.10;;;;;;;13.65;100.00;99915.53;5062867;28;20021;-80
2024/03/02 10:37:15;;;;;;;8.80;2.30;;;;;;;13.81;100.00;99921.38;5062472;28;20040;-79
2024/03/02 10:39:40;;;;;;;8.77;2.00;;;;;;;13.89;100.00;99933.56;5062564;28;20036;-80
2024/03/02 10:42:06;;;;;;;8.45;1.85;;;;;;;13.72;100.00;99925.97;5063099;28;20032;-79
2024/03/02 10:44:33;;;;;;;7.70;2.05;;;;;;;14.12;100.00;99938.31;5065126;28;20024;-77
2024/03/02 10:47:05;;;;;;;11.82;2.08;;;;;;;14.48;100.00;99903.72;5061741;28;20036;-78
2024/03/02 10:49:32;;;;;;;11.90;2.40;;;;;;;15.10;100.00;99917.13;5064856;28;20108;-78
2024/03/02 10:52:01;;;;;;;8.35;2.10;;;;;;;15.44;100.00;99919.69;5061801;28;20103;-79
2024/03/02 10:54:29;;;;;;;7.57;2.00;;;;;;;15.80;100.00;99910.59;5061751;28;20383;-79
2024/03/02 10:56:58;;;;;;;6.95;1.95;;;;;;;16.25;100.00;99918.03;5065117;28;20107;-79
2024/03/02 10:59:34;;;;;;;6.15;1.95;;;;;;;15.91;100.00;99903.13;5061569;28;20045;-78
2024/03/02 11:02:01;;;;;;;6.68;1.90;;;;;;;15.89;100.00;99920.97;5064358;28;20028;-78
2024/03/02 11:04:28;;;;;;;11.38;2.13;;;;;;;15.78;100.00;99908.00;5061537;28;20120;-78
2024/03/02 11:07:13;;;;;;;8.95;1.90;;;;;;;15.81;100.00;99907.91;5065102;28;20421;-79
2024/03/02 11:09:50;;;;;;;7.65;1.98;;;;;;;16.25;100.00;99902.03;5062654;28;20040;-78
2024/03/02 11:13:04;;;;;;;7.70;1.90;;;;;;;16.36;100.00;99909.66;5062988;28;20051;-80
2024/03/02 11:15:30;;;;;;;7.78;1.98;;;;;;;16.70;100.00;99890.69;5060367;28;20140;-79
2024/03/02 11:17:57;;;;;;;6.90;1.83;;;;;;;16.93;100.00;99894.31;5061419;28;20520;-78
2024/03/02 11:20:23;;;;;;;3.90;1.70;;;;;;;17.51;100.00;99901.91;5064303;28;20040;-77
2024/03/02 11:22:49;;;;;;;6.03;1.85;;;;;;;17.68;86.01;99917.28;5062048;28;20031;-78
2024/03/02 11:25:27;;;;;;;6.43;1.90;;;;;;;17.50;93.74;99921.53;5063131;28;20044;-80
2024/03/02 11:27:53;;;;;;;6.28;2.05;;;;;;;17.25;91.43;99900.25;5060546;28;20025;-77
2024/03/02 11:30:33;;;;;;;9.57;2.05;;;;;;;17.27;98.61;99908.19;5063514;28;20086;-78
2024/03/02 11:32:59;;;;;;;9.98;2.10;;;;;;;17.36;100.00;99900.72;5060918;28;20032;-79